Flight Track Log - Related Links

Times and Time Zones

All times are in EDT time to prevent confusion due to time zone crossing. See the UCA5001 flight status page for this flight to view local times or setup timezone preferences in your user account.

Time Position Orientation Groundspeed Altitude Reporting Facility
EDT Latitude Longitude Course Direction KTS MPH feet Rate Location/Type
Wed 03:44:50 PM 38.9500 -77.5500 223° Southwest 170 196 2,800  Level Potomac TRACON
Wed 03:45:50 PM 38.9500 -77.6167 270° West 182 209 4,000 947 Climbing Potomac TRACON
Wed 03:46:44 PM 38.9167 -77.6667 229° Southwest 214 246 4,600 789 Climbing Potomac TRACON
Wed 03:47:44 PM 38.8667 -77.7000 207° Southwest 220 253 5,500 1,300 Climbing Potomac TRACON
Wed 03:48:44 PM 38.8167 -77.7333 207° Southwest 195 224 7,200 1,429 Climbing Potomac TRACON
Wed 03:49:00 PM 38.7716 -77.6784 218° Southwest  Level FlightAware Approximate
Wed 03:49:08 PM 38.8022 -77.7547 229° Southwest 197 227 7,500  Level Washington Center
Wed 03:50:00 PM 38.7298 -77.7376 223° Southwest  Level FlightAware Approximate
Wed 03:50:05 PM 38.7536 -77.7906 210° Southwest 197 227 8,900  Level Washington Center
Wed 03:51:06 PM 38.7050 -77.8264 210° Southwest 202 232 10,300 1,377 Climbing Washington Center
Wed 03:52:07 PM 38.6608 -77.8542 206° Southwest 202 232 11,700 1,412 Climbing Washington Center
Wed 03:53:05 PM 38.6181 -77.9008 220° Southwest 207 238 13,100 1,160 Climbing Washington Center
Wed 03:54:06 PM 38.5836 -77.9633 235° Southwest 207 238 14,000 446 Climbing Washington Center
Wed 03:55:06 PM 38.5447 -78.0339 235° Southwest 225 259 14,000  Level Washington Center
Wed 03:56:07 PM 38.5014 -78.1067 233° Southwest 250 288 14,000  Level Washington Center
Wed 03:57:05 PM 38.4581 -78.1794 233° Southwest 257 296 14,000  Level Washington Center
Wed 03:58:06 PM 38.4128 -78.2547 233° Southwest 262 302 14,000  Level Washington Center
Wed 03:59:07 PM 38.3694 -78.3272 233° Southwest 262 302 14,000  Level Washington Center
Wed 04:00:07 PM 38.3303 -78.3972 235° Southwest 262 302 14,000  Level Washington Center
Wed 04:01:07 PM 38.2847 -78.4697 231° Southwest 262 302 14,000  Level Washington Center
Wed 04:02:05 PM 38.2478 -78.5292 232° Southwest 257 296 14,000 -1,513 Level Washington Center
Wed 04:03:06 PM 38.2064 -78.6067 236° Southwest 257 296 11,000 -443 Descending Washington Center
Wed 04:04:07 PM 38.1561 -78.6892 232° Southwest 262 302 13,100  Climbing Washington Center
Wed 04:06:07 PM 38.0625 -78.8436 232° Southwest 278 320 11,000 -708 Descending Washington Center
Wed 04:07:05 PM 38.0186 -78.9208 234° Southwest 278 320 11,000  Level Washington Center
Wed 04:08:06 PM 37.9794 -78.9850 232° Southwest 273 314 11,000  Level Washington Center
Wed 04:09:06 PM 37.9356 -79.0542 231° Southwest 268 308 11,000  Level Washington Center
Wed 04:10:07 PM 37.8919 -79.1258 232° Southwest 268 308 11,000  Level Washington Center
Wed 04:11:05 PM 37.8414 -79.2050 231° Southwest 268 308 11,000  Level Washington Center
Wed 04:12:05 PM 37.7956 -79.2711 229° Southwest 268 308 11,000  Level Washington Center
Wed 04:13:06 PM 37.7497 -79.3422 231° Southwest 268 308 11,000 -50 Level Washington Center
Wed 04:14:06 PM 37.7017 -79.4083 227° Southwest 268 308 10,900 -50 Descending Washington Center
Wed 04:15:07 PM 37.6622 -79.4719 232° Southwest 268 308 10,900 -252 Level Washington Center
Wed 04:16:05 PM 37.6094 -79.5503 230° Southwest 268 308 10,400 -939 Descending Washington Center
Wed 04:18:06 PM 37.5150 -79.6919 230° Southwest 268 308 8,100 -791 Descending Washington Center
Wed 04:19:07 PM 37.4794 -79.7531 234° Southwest 262 302 8,000 -50 Descending Washington Center
Wed 04:20:07 PM 37.4431 -79.8372 241° Southwest 249 287 8,000  Level Washington Center
Wed 04:21:07 PM 37.4156 -79.9064 243° Southwest 249 287 8,000  Level Washington Center
Wed 04:22:05 PM 37.3817 -79.9803 240° Southwest 249 287 8,000  Level Washington Center
Wed 04:23:06 PM 37.3497 -80.0569 242° Southwest 249 287 8,000 -590 Level Washington Center
Wed 04:24:07 PM 37.3133 -80.1383 241° Southwest 249 287 6,800 -1,180 Descending Washington Center

Login

Don't have an account? Register now (free) for customized features, flight alerts, and more!